createdAt,value
2019-05-15T00:02:18.436Z,75.25
2019-05-15T00:07:20.328Z,75.59
2019-05-15T00:12:22.169Z,75.17
2019-05-15T00:17:23.950Z,76.24
2019-05-15T00:22:25.803Z,75.17
2019-05-15T00:27:28.475Z,75.55
2019-05-15T00:32:30.488Z,74.52
2019-05-15T00:37:32.329Z,75.59
2019-05-15T00:42:34.161Z,75.71
2019-05-15T00:47:36.028Z,77.54
2019-05-15T00:52:39.285Z,76.47
2019-05-15T00:57:41.369Z,77.03
2019-05-15T01:02:43.250Z,76.83
2019-05-15T01:07:45.130Z,76.79
2019-05-15T01:12:48.666Z,76.44
2019-05-15T01:17:50.759Z,76.61
2019-05-15T01:22:52.526Z,75.41
2019-05-15T01:27:54.412Z,76.59
2019-05-15T01:32:56.218Z,76.42
2019-05-15T01:37:58.583Z,77.16
2019-05-15T01:43:00.700Z,76.20
2019-05-15T01:48:03.296Z,76.25
2019-05-15T01:53:08.196Z,76.16
2019-05-15T01:58:10.012Z,76.16
2019-05-15T02:03:11.900Z,73.80
2019-05-15T02:08:13.715Z,75.92
2019-05-15T02:13:15.543Z,75.79
2019-05-15T02:18:19.184Z,75.11
2019-05-15T02:23:21.105Z,75.62
2019-05-15T02:28:22.935Z,73.28
2019-05-15T02:33:24.783Z,74.87
2019-05-15T02:38:29.547Z,74.38
2019-05-15T02:43:30.462Z,75.31
2019-05-15T02:48:32.393Z,74.17
2019-05-15T02:53:34.351Z,75.46
2019-05-15T02:58:36.194Z,78.05
2019-05-15T03:03:38.921Z,77.69
2019-05-15T03:08:41.366Z,79.01
2019-05-15T03:13:43.314Z,77.99
2019-05-15T03:18:45.177Z,78.86
2019-05-15T03:23:50.646Z,78.58
2019-05-15T03:28:51.842Z,78.09
2019-05-15T03:33:55.003Z,77.74
2019-05-15T03:38:58.730Z,77.97
2019-05-15T03:44:01.067Z,77.43
2019-05-15T03:49:02.981Z,77.64
2019-05-15T03:54:04.892Z,77.65
2019-05-15T03:59:09.363Z,76.62
2019-05-15T04:04:10.516Z,77.55
2019-05-15T04:09:12.318Z,76.67
2019-05-15T04:14:14.203Z,77.42
2019-05-15T04:19:18.839Z,77.91
2019-05-15T04:25:10.631Z,77.62
2019-05-15T04:30:13.101Z,77.33
2019-05-15T04:35:15.046Z,77.82
2019-05-15T04:40:19.315Z,77.79
2019-05-15T04:45:21.103Z,78.52
2019-05-15T04:50:23.075Z,76.97
2019-05-15T04:55:25.033Z,76.69
2019-05-15T05:00:49.585Z,78.06
2019-05-15T05:05:51.714Z,77.39
2019-05-15T05:10:53.751Z,77.34
2019-05-15T05:15:58.461Z,75.13
2019-05-15T05:20:59.347Z,73.72
2019-05-15T05:26:01.156Z,78.02
2019-05-15T05:31:03.101Z,76.13
2019-05-15T05:36:05.003Z,76.90
2019-05-15T05:41:08.154Z,76.36
2019-05-15T06:00:29.015Z,71.98
2019-05-15T06:05:30.936Z,73.51
2019-05-15T06:10:32.804Z,73.88
2019-05-15T06:15:35.015Z,74.30
2019-05-15T06:20:39.358Z,75.13
2019-05-15T06:25:40.827Z,73.66
2019-05-15T06:36:39.693Z,73.96
2019-05-15T06:41:41.563Z,72.69
2019-05-15T06:46:43.651Z,73.88
2019-05-15T06:51:45.611Z,73.82
2019-05-15T06:56:49.222Z,74.20
2019-05-15T07:01:51.415Z,73.73
2019-05-15T07:06:53.275Z,71.40
2019-05-15T07:11:55.206Z,72.63
2019-05-15T07:16:59.213Z,72.99
2019-05-15T07:34:24.062Z,73.88
2019-05-15T07:39:28.694Z,73.51
2019-05-15T07:50:59.432Z,74.86
2019-05-15T07:56:01.781Z,73.39
2019-05-15T08:01:05.460Z,72.50
2019-05-15T08:06:08.763Z,71.56
2019-05-15T08:11:20.156Z,71.01
2019-05-15T08:16:14.850Z,71.37
2019-05-15T08:45:49.594Z,67.92
2019-05-15T08:50:53.614Z,69.94
2019-05-15T09:20:12.899Z,66.89
2019-05-15T09:43:34.098Z,69.42
2019-05-15T10:13:08.867Z,64.01
2019-05-15T10:18:10.331Z,66.44
2019-05-15T10:23:12.230Z,64.14
2019-05-15T10:28:15.313Z,67.82
2019-05-15T10:33:20.153Z,64.48
2019-05-15T10:38:22.900Z,64.06
2019-05-15T10:43:24.882Z,65.77
2019-05-15T10:48:29.178Z,65.58
2019-05-15T10:53:30.725Z,66.63
2019-05-15T10:58:32.966Z,62.26
2019-05-15T11:03:35.328Z,61.16
2019-05-15T11:08:40.202Z,63.08
2019-05-15T11:13:41.363Z,63.50
2019-05-15T11:18:43.333Z,61.40
2019-05-15T11:23:45.464Z,60.82
2019-05-15T11:28:49.736Z,62.12
2019-05-15T11:33:52.846Z,64.25
2019-05-15T11:38:55.012Z,62.31
2019-05-15T11:43:57.018Z,61.32
2019-05-15T11:48:59.146Z,63.37
2019-05-15T11:54:01.091Z,63.07
2019-05-15T11:59:02.911Z,62.10
2019-05-15T12:04:04.864Z,62.10
2019-05-15T12:09:09.100Z,61.93
2019-05-15T12:14:10.843Z,61.32
2019-05-15T12:19:17.265Z,60.86
2019-05-15T12:24:16.561Z,62.24
2019-05-15T12:29:18.523Z,63.41
2019-05-15T12:34:20.522Z,61.39
2019-05-15T12:39:22.696Z,61.63
2019-05-15T13:04:42.513Z,64.45
2019-05-15T13:09:48.661Z,66.14
2019-05-15T13:14:50.730Z,67.96
2019-05-15T13:19:53.787Z,71.14
2019-05-15T13:24:55.732Z,72.37
2019-05-15T13:29:58.376Z,73.93
2019-05-15T13:35:01.978Z,75.83
2019-05-15T13:40:05.920Z,74.37
2019-05-15T13:45:12.641Z,76.30
2019-05-15T13:50:14.156Z,73.41
2019-05-15T13:55:24.811Z,77.20
2019-05-15T14:00:20.672Z,78.83
2019-05-15T14:05:22.636Z,78.92
2019-05-15T14:10:24.655Z,79.12
2019-05-15T14:15:26.952Z,77.86
2019-05-15T14:20:29.036Z,76.05
2019-05-15T14:25:32.084Z,75.69
2019-05-15T14:30:34.200Z,76.28
2019-05-15T14:35:37.930Z,75.96
2019-05-15T14:40:41.256Z,77.00
2019-05-15T14:45:43.235Z,77.87
2019-05-15T14:50:45.182Z,77.82
2019-05-15T14:55:49.252Z,77.51
2019-05-15T15:00:50.916Z,76.47
2019-05-15T15:05:52.812Z,78.01
2019-05-15T15:10:54.655Z,76.02
2019-05-15T15:15:58.921Z,75.59
2019-05-15T15:21:00.425Z,76.65
2019-05-15T15:26:02.733Z,76.82
2019-05-15T15:31:04.958Z,77.65
2019-05-15T15:36:09.396Z,77.21
2019-05-15T15:41:11.559Z,76.72
2019-05-15T15:46:13.712Z,76.09
2019-05-15T15:51:17.795Z,77.23
2019-05-15T15:56:19.529Z,76.71
2019-05-15T16:01:23.929Z,76.07
2019-05-15T16:06:25.359Z,76.82
2019-05-15T16:11:27.923Z,77.01
2019-05-15T16:16:30.087Z,74.69
2019-05-15T16:21:32.014Z,75.04
2019-05-15T16:26:33.961Z,75.09
2019-05-15T16:31:38.392Z,74.43
2019-05-15T16:36:40.639Z,73.68
2019-05-15T16:41:42.799Z,74.48
2019-05-15T16:46:49.172Z,75.26
2019-05-15T16:51:51.766Z,75.70
2019-05-15T16:56:54.764Z,76.12
2019-05-15T17:02:01.730Z,76.40
2019-05-15T17:07:03.608Z,74.83
2019-05-15T17:12:08.721Z,75.65
2019-05-15T17:17:18.520Z,76.04
2019-05-15T17:22:22.005Z,75.54
2019-05-15T17:27:28.973Z,74.94
2019-05-15T17:32:43.119Z,75.76
2019-05-15T17:37:58.106Z,75.97
2019-05-15T17:43:09.374Z,75.62
2019-05-15T17:48:15.454Z,76.12
2019-05-15T17:53:38.243Z,75.91
2019-05-15T17:58:58.191Z,75.84
2019-05-15T18:04:04.959Z,75.81
2019-05-15T18:09:08.703Z,76.07
2019-05-15T18:14:15.820Z,79.11
2019-05-15T18:19:18.868Z,78.11
2019-05-15T18:24:24.192Z,77.89
2019-05-15T18:29:34.414Z,78.81
2019-05-15T18:34:39.994Z,78.40
2019-05-15T18:39:49.362Z,78.37
2019-05-15T18:50:30.011Z,78.71
2019-05-15T18:55:42.117Z,78.24
2019-05-15T19:00:53.009Z,78.45
2019-05-15T19:06:18.620Z,78.43
2019-05-15T19:11:30.179Z,77.33
2019-05-15T19:16:38.760Z,78.42
2019-05-15T19:21:58.394Z,77.87
2019-05-15T19:27:04.140Z,78.19
2019-05-15T19:32:13.729Z,77.70
2019-05-15T19:37:40.646Z,78.64
2019-05-15T19:42:52.624Z,78.45
2019-05-15T19:48:08.925Z,78.55
2019-05-15T19:53:21.701Z,77.81
2019-05-15T19:58:44.058Z,78.36
2019-05-15T20:03:53.218Z,78.77
2019-05-15T20:09:04.494Z,77.64
2019-05-15T20:14:07.037Z,78.26
2019-05-15T20:19:11.763Z,78.42
2019-05-15T20:24:23.264Z,78.35
2019-05-15T20:29:29.025Z,78.84
2019-05-15T20:34:32.934Z,79.48
2019-05-15T20:39:38.714Z,80.14
2019-05-15T20:44:43.818Z,79.97
2019-05-15T20:49:50.479Z,79.66
2019-05-15T20:54:52.495Z,79.13
2019-05-15T20:59:54.775Z,78.93
2019-05-15T21:04:58.335Z,79.49
2019-05-15T21:10:00.833Z,79.00
2019-05-15T21:15:03.064Z,78.21
2019-05-15T21:20:05.667Z,77.98
2019-05-15T21:25:10.687Z,78.09
2019-05-15T21:30:13.477Z,78.45
2019-05-15T21:35:17.854Z,77.77
2019-05-15T21:40:19.638Z,76.63
2019-05-15T21:45:21.894Z,77.22
2019-05-15T21:50:23.877Z,77.42
2019-05-15T21:55:25.865Z,77.20
2019-05-15T22:00:38.027Z,77.18
2019-05-15T22:05:40.839Z,76.88
2019-05-15T22:10:43.128Z,77.72
2019-05-15T22:15:45.163Z,78.28
2019-05-15T22:20:48.088Z,78.16
2019-05-15T22:25:51.480Z,78.14
2019-05-15T22:30:53.549Z,79.99
2019-05-15T22:35:55.522Z,78.58
2019-05-15T22:41:03.041Z,79.11
2019-05-15T22:46:07.737Z,79.66
2019-05-15T22:51:09.851Z,80.01
2019-05-15T22:56:11.874Z,81.88
2019-05-15T23:01:13.828Z,81.25
2019-05-15T23:06:17.839Z,80.43
2019-05-15T23:11:19.629Z,79.60
2019-05-15T23:16:21.571Z,79.82
2019-05-15T23:21:23.474Z,79.35
2019-05-15T23:26:25.501Z,79.04
2019-05-15T23:31:28.059Z,79.26
2019-05-15T23:36:30.200Z,79.35
2019-05-15T23:41:32.092Z,79.79
2019-05-15T23:46:34.190Z,79.08
2019-05-15T23:51:38.335Z,78.93
2019-05-15T23:56:39.894Z,78.93
